Time;durP1;ratioP1;P1;durP2;ratioP2;P2;SDS_P1;SDS_P2;PMS_P1;PMS_P2;Temp;Humidity;BMP_temperature;BMP_pressure;BME280_temperature;BME280_humidity;BME280_pressure;Samples;Min_cycle;Max_cycle;Signal;HPM_P1;HPM_P2
2021/04/30 00:01:55;;;;;;;9.53;6.10;;;14.60;81.10;;;15.00;42.82;100718.44;4887632;28;98048;-50
2021/04/30 00:04:21;;;;;;;9.00;6.20;;;14.70;79.60;;;14.77;41.01;100724.13;4889644;28;99137;-53
2021/04/30 00:06:47;;;;;;;9.10;5.67;;;14.50;77.80;;;14.92;43.10;100720.66;4862268;28;98090;-51
2021/04/30 00:09:13;;;;;;;8.00;5.97;;;14.50;82.10;;;14.96;42.52;100722.19;4873310;28;99224;-52
2021/04/30 00:11:39;;;;;;;8.10;5.50;;;14.60;78.90;;;14.90;42.86;100719.88;4894606;28;102467;-50
2021/04/30 00:14:05;;;;;;;10.80;6.10;;;14.40;80.00;;;14.92;42.87;100720.66;4887396;28;101965;-50
2021/04/30 00:16:30;;;;;;;11.13;5.73;;;14.50;79.80;;;14.93;42.76;100727.69;4877891;28;101147;-54
2021/04/30 00:18:56;;;;;;;8.73;5.20;;;14.50;80.20;;;15.05;42.94;100719.06;4878390;28;98231;-54
2021/04/30 00:21:22;;;;;;;10.43;5.50;;;14.70;80.00;;;14.99;41.40;100722.03;4869099;28;99709;-53
2021/04/30 00:23:48;;;;;;;10.50;5.37;;;14.70;78.70;;;15.05;42.97;100727.03;4884535;28;98956;-50
2021/04/30 00:26:14;;;;;;;7.13;4.97;;;14.70;79.30;;;15.04;42.36;100719.97;4873750;28;97913;-54
2021/04/30 00:28:40;;;;;;;9.03;5.27;;;14.70;78.60;;;15.08;41.50;100726.88;4871328;28;102637;-53
2021/04/30 00:31:05;;;;;;;9.87;5.30;;;14.80;77.80;;;15.08;42.50;100724.22;4892430;28;98969;-56
2021/04/30 00:33:31;;;;;;;10.17;4.93;;;14.70;79.00;;;15.17;42.37;100721.03;4888433;28;105271;-54
2021/04/30 00:35:57;;;;;;;11.43;5.10;;;14.80;79.90;;;15.12;42.63;100712.47;4875644;28;98297;-52
2021/04/30 00:38:23;;;;;;;9.23;5.60;;;14.80;80.20;;;15.08;42.30;100721.56;4871659;28;98513;-53
2021/04/30 00:40:50;;;;;;;10.03;5.37;;;14.70;78.90;;;15.04;41.30;100719.97;4885004;28;98057;-53
2021/04/30 00:43:17;;;;;;;8.50;5.10;;;14.70;78.10;;;15.05;42.72;100719.06;4871657;28;100630;-52
2021/04/30 00:45:43;;;;;;;9.63;5.37;;;14.60;80.80;;;15.07;42.87;100725.16;4873162;28;97345;-49
2021/04/30 00:48:10;;;;;;;9.67;5.50;;;14.70;81.00;;;15.17;42.55;100721.03;4873477;28;99940;-53
2021/04/30 00:50:37;;;;;;;9.27;4.60;;;14.90;80.10;;;15.16;41.35;100727.31;4882911;28;97046;-50
2021/04/30 00:53:04;;;;;;;8.93;5.07;;;14.90;78.70;;;15.15;42.33;100725.59;4895409;28;98418;-51
2021/04/30 00:55:29;;;;;;;10.87;5.17;;;14.90;79.70;;;15.18;42.13;100722.75;4869986;28;98459;-51
2021/04/30 00:57:59;;;;;;;9.60;5.30;;;14.90;79.40;;;15.26;41.54;100732.13;4892991;28;98374;-52
2021/04/30 01:00:28;;;;;;;9.33;5.10;;;15.10;76.80;;;15.32;42.43;100721.16;4885877;28;100367;-52
2021/04/30 01:02:55;;;;;;;10.57;5.33;;;15.00;79.60;;;15.21;42.58;100736.84;4891981;28;99426;-50
2021/04/30 01:05:22;;;;;;;8.00;5.20;;;14.90;79.70;;;15.23;42.62;100734.97;4869965;28;98720;-55
2021/04/30 01:07:49;;;;;;;7.70;5.10;;;14.90;79.70;;;15.14;41.65;100737.16;4860773;28;98701;-53
2021/04/30 01:10:17;;;;;;;6.17;5.10;;;14.70;78.00;;;15.28;42.44;100732.91;4887377;28;99156;-52
2021/04/30 01:12:43;;;;;;;9.57;4.70;;;14.90;80.10;;;15.29;42.54;100737.28;4884772;28;98785;-49
2021/04/30 01:15:12;;;;;;;7.63;5.20;;;14.90;80.20;;;15.33;41.35;100741.47;4866294;28;99347;-51
2021/04/30 01:17:38;;;;;;;9.90;5.13;;;15.10;76.80;;;15.31;42.38;100743.38;4893108;28;99086;-54
2021/04/30 01:20:06;;;;;;;10.37;5.27;;;14.90;78.90;;;15.24;41.13;100749.97;4880924;28;97679;-51
2021/04/30 01:22:38;;;;;;;14.40;5.87;;;14.90;78.50;;;15.12;42.32;100744.34;4872157;28;103930;-52
2021/04/30 01:25:08;;;;;;;10.03;5.27;;;14.70;79.70;;;15.17;42.16;100747.63;4899255;28;97914;-52
2021/04/30 01:27:34;;;;;;;8.63;4.80;;;14.80;78.50;;;15.22;42.58;100750.06;4886852;28;98451;-52
2021/04/30 01:30:00;;;;;;;14.33;5.87;;;14.80;80.30;;;15.21;42.13;100752.78;4882725;28;98249;-52
2021/04/30 01:32:26;;;;;;;10.90;6.10;;;14.90;78.80;;;15.10;41.15;100756.00;4888017;28;99636;-50
2021/04/30 01:34:52;;;;;;;8.27;5.50;;;14.70;78.50;;;15.12;41.23;100754.97;4899113;28;97239;-52
2021/04/30 01:37:19;;;;;;;12.80;5.87;;;14.70;79.00;;;15.16;41.85;100758.31;4889098;28;97244;-53
2021/04/30 01:39:45;;;;;;;9.87;5.90;;;14.80;79.60;;;15.22;42.41;100765.13;4888491;28;99130;-51
2021/04/30 01:42:11;;;;;;;9.13;6.13;;;14.80;79.40;;;15.25;42.15;100764.97;4873627;28;100494;-51
2021/04/30 01:44:38;;;;;;;8.83;5.57;;;14.90;79.00;;;15.26;41.84;100766.69;4880011;28;99085;-55
2021/04/30 01:47:04;;;;;;;8.87;6.23;;;15.00;78.60;;;15.11;41.10;100758.59;4888133;28;97940;-50
2021/04/30 01:49:30;;;;;;;10.50;6.17;;;14.80;77.20;;;15.08;42.05;100764.06;4875481;28;98482;-49
2021/04/30 01:51:56;;;;;;;13.13;6.60;;;14.80;79.00;;;15.04;42.88;100757.16;4889678;28;101169;-54
2021/04/30 01:54:22;;;;;;;10.17;7.17;;;14.60;79.90;;;14.94;42.57;100761.28;4876451;28;98764;-51
2021/04/30 01:56:48;;;;;;;9.37;7.07;;;14.50;80.10;;;14.80;42.44;100763.78;4875478;28;97966;-55
2021/04/30 01:59:14;;;;;;;9.90;6.13;;;14.30;79.80;;;14.81;42.41;100768.16;4874398;28;98395;-56
2021/04/30 02:01:40;;;;;;;8.50;7.00;;;14.40;80.50;;;14.92;42.32;100757.84;4895122;28;97650;-53
2021/04/30 02:04:10;;;;;;;8.03;6.87;;;14.50;79.80;;;14.95;42.95;100767.44;4894381;28;101172;-59
2021/04/30 02:06:38;;;;;;;12.73;6.93;;;14.60;80.20;;;15.02;42.47;100766.16;4908885;28;97741;-59
2021/04/30 02:09:06;;;;;;;10.80;7.13;;;14.70;79.70;;;15.00;42.62;100771.56;4903260;28;97061;-51
2021/04/30 02:11:32;;;;;;;11.50;6.43;;;14.80;79.30;;;15.06;42.59;100767.75;4896388;28;96679;-51
2021/04/30 02:13:58;;;;;;;10.87;6.97;;;14.80;79.70;;;15.19;42.60;100768.81;4890192;28;99174;-52
2021/04/30 02:16:23;;;;;;;12.67;7.43;;;15.00;80.40;;;15.21;41.82;100766.06;4893835;28;101506;-54
2021/04/30 02:18:49;;;;;;;10.57;7.87;;;15.00;78.10;;;15.09;42.13;100768.44;4882793;28;97685;-52
2021/04/30 02:21:15;;;;;;;9.57;8.00;;;14.70;78.70;;;14.92;40.59;100759.63;4897003;28;96904;-53
2021/04/30 02:23:41;;;;;;;12.67;8.07;;;14.60;77.30;;;14.96;42.31;100762.03;4896915;28;99607;-53
2021/04/30 02:26:07;;;;;;;11.13;8.27;;;14.60;78.80;;;14.77;43.11;100759.50;4899344;28;97117;-49
2021/04/30 02:28:33;;;;;;;10.33;8.00;;;14.30;81.00;;;14.81;43.37;100752.22;4893133;28;97878;-51
2021/04/30 02:30:58;;;;;;;11.60;8.50;;;14.40;82.20;;;14.90;43.09;100749.09;4901546;28;97177;-53
2021/04/30 02:33:24;;;;;;;11.03;8.10;;;14.60;81.00;;;14.95;43.21;100751.50;4888277;28;105128;-50
2021/04/30 02:35:51;;;;;;;14.47;9.00;;;14.70;79.70;;;14.84;41.74;100749.41;4888264;28;97620;-56
2021/04/30 02:38:19;;;;;;;13.47;9.53;;;14.60;77.90;;;14.86;42.64;100753.69;4910628;28;97671;-56
2021/04/30 02:40:49;;;;;;;12.10;9.10;;;14.50;79.20;;;14.64;42.04;100752.22;4899398;28;98375;-51
2021/04/30 02:43:21;;;;;;;10.87;8.47;;;14.20;79.40;;;14.69;41.96;100751.03;4900716;28;97063;-49
2021/04/30 02:45:51;;;;;;;10.30;8.63;;;14.30;80.90;;;14.66;42.11;100751.22;4880551;28;96795;-53
2021/04/30 02:48:31;;;;;;;12.93;9.00;;;14.20;80.00;;;14.62;43.23;100754.09;4907346;28;96915;-57
2021/04/30 02:51:01;;;;;;;13.40;9.93;;;14.20;80.00;;;14.48;42.13;100753.00;4898737;28;102876;-49
2021/04/30 02:53:28;;;;;;;12.10;9.13;;;14.00;80.20;;;14.53;43.99;100758.94;4880135;28;97235;-52
2021/04/30 02:55:54;;;;;;;16.07;10.17;;;14.00;83.60;;;14.63;43.50;100758.47;4907513;28;97139;-54
2021/04/30 02:58:21;;;;;;;16.07;9.97;;;14.20;80.10;;;14.53;42.15;100755.41;4906297;28;97699;-55
2021/04/30 03:00:47;;;;;;;14.70;10.00;;;14.10;80.40;;;14.62;43.57;100764.72;4899253;28;98682;-52
2021/04/30 03:03:13;;;;;;;10.10;9.03;;;14.00;81.70;;;14.41;42.49;100756.84;4895803;28;98141;-56
2021/04/30 03:05:39;;;;;;;16.03;12.83;;;13.80;81.40;;;14.35;43.66;100759.81;4896211;28;97503;-55
2021/04/30 03:08:05;;;;;;;12.37;10.37;;;13.70;82.70;;;14.36;42.92;100752.72;4892800;28;97146;-49
2021/04/30 03:10:32;;;;;;;14.43;10.93;;;13.70;81.70;;;14.34;43.27;100755.44;4895136;28;98706;-56
2021/04/30 03:12:58;;;;;;;15.90;11.47;;;13.70;81.50;;;14.29;43.72;100762.75;4892573;28;99738;-53
2021/04/30 03:15:26;;;;;;;13.30;11.47;;;13.60;82.40;;;14.29;44.67;100762.75;4878042;28;98212;-54
2021/04/30 03:17:52;;;;;;;18.13;10.87;;;13.50;84.40;;;14.20;44.58;100763.22;4895644;28;97531;-53
2021/04/30 03:20:19;;;;;;;12.93;11.00;;;13.50;84.40;;;14.36;44.44;100769.50;4897111;28;99688;-52
2021/04/30 03:22:46;;;;;;;14.03;10.70;;;13.70;85.10;;;14.31;44.30;100768.84;4897775;28;98862;-52
2021/04/30 03:25:14;;;;;;;13.73;10.53;;;13.60;82.70;;;14.32;42.83;100772.34;4905205;28;98863;-50
2021/04/30 03:27:40;;;;;;;16.47;11.33;;;13.60;82.10;;;14.38;44.61;100772.06;4881646;28;97583;-55
2021/04/30 03:30:07;;;;;;;11.53;5.97;;;13.60;84.60;;;14.34;44.50;100774.03;4904169;28;97688;-54
2021/04/30 03:32:35;;;;;;;14.17;10.17;;;13.50;84.70;;;14.39;44.10;100773.78;4906664;28;97379;-56
2021/04/30 03:35:02;;;;;;;12.23;10.13;;;13.50;84.20;;;14.33;44.60;100774.97;4900185;28;96959;-53
2021/04/30 03:37:28;;;;;;;14.37;9.10;;;13.50;84.60;;;14.39;43.61;100779.09;4890528;28;97091;-56
2021/04/30 03:39:54;;;;;;;8.23;7.27;;;13.60;84.00;;;14.38;44.71;100778.25;4898350;28;97407;-55
2021/04/30 03:42:19;;;;;;;20.33;12.83;;;13.50;84.70;;;14.29;44.72;100794.59;4889920;28;97757;-50
2021/04/30 03:44:46;;;;;;;15.07;11.63;;;13.40;85.20;;;14.34;43.99;100787.28;4904157;28;98416;-54
2021/04/30 03:47:12;;;;;;;7.80;5.93;;;13.50;85.00;;;14.30;44.63;100796.31;4877740;28;97293;-51
2021/04/30 03:49:38;;;;;;;15.10;12.17;;;13.50;86.10;;;14.27;44.43;100796.47;4885039;28;98678;-55
2021/04/30 03:52:05;;;;;;;12.37;10.43;;;13.50;85.50;;;14.49;44.53;100794.53;4895165;28;98552;-53
2021/04/30 03:54:31;;;;;;;20.60;11.90;;;13.80;85.60;;;14.64;44.07;100803.53;4896176;28;101666;-56
2021/04/30 03:56:58;;;;;;;16.20;11.47;;;14.00;84.60;;;14.74;44.08;100795.94;4894377;28;99001;-56
2021/04/30 03:59:23;;;;;;;19.83;11.83;;;14.20;84.20;;;14.81;43.51;100803.53;4895691;28;98771;-59
2021/04/30 04:01:49;;;;;;;14.53;11.33;;;14.30;83.70;;;14.88;43.86;100788.97;4889773;28;97324;-50
2021/04/30 04:04:15;;;;;;;14.67;12.03;;;14.30;84.90;;;14.95;43.67;100800.16;4884796;28;98441;-53
2021/04/30 04:06:41;;;;;;;16.10;12.93;;;14.40;84.30;;;15.00;43.55;100803.44;4875864;28;107684;-53
2021/04/30 04:09:07;;;;;;;16.13;13.00;;;14.40;84.50;;;15.04;43.25;100794.34;4895598;28;97917;-50
2021/04/30 04:11:33;;;;;;;14.67;13.00;;;14.40;83.80;;;15.07;42.94;100788.91;4907947;28;97146;-55
2021/04/30 04:13:59;;;;;;;14.63;12.03;;;14.50;82.80;;;14.91;43.68;100788.00;4896353;28;97968;-50
2021/04/30 04:16:24;;;;;;;11.93;10.67;;;14.20;85.60;;;14.85;43.90;100788.28;4891007;28;97783;-51
2021/04/30 04:18:50;;;;;;;17.20;14.40;;;14.00;86.40;;;14.82;43.89;100784.00;4875860;28;97870;-49
2021/04/30 04:21:16;;;;;;;18.07;13.40;;;13.90;87.70;;;14.80;43.79;100783.22;4910040;28;97954;-58
2021/04/30 04:23:42;;;;;;;12.90;11.10;;;13.90;86.50;;;14.83;44.03;100784.84;4895148;28;97117;-49
2021/04/30 04:26:08;;;;;;;16.23;14.53;;;14.00;85.90;;;14.73;44.10;100786.25;4910204;28;97161;-51
2021/04/30 04:28:34;;;;;;;19.37;14.80;;;13.90;86.70;;;14.75;44.07;100779.91;4906193;28;97446;-51
2021/04/30 04:30:59;;;;;;;17.00;14.17;;;13.90;86.40;;;14.78;43.84;100784.25;4896067;28;96893;-49
2021/04/30 04:33:25;;;;;;;21.27;14.07;;;14.10;84.90;;;14.81;43.83;100786.75;4867037;28;96896;-51
2021/04/30 04:35:51;;;;;;;17.47;14.73;;;14.10;85.60;;;14.94;43.77;100790.47;4899078;28;97421;-54
2021/04/30 04:38:17;;;;;;;16.40;13.97;;;14.40;84.00;;;14.92;43.54;100795.03;4867283;28;104499;-59
2021/04/30 04:40:43;;;;;;;17.07;14.30;;;14.40;83.30;;;14.93;43.37;100794.09;4890094;28;101308;-53
2021/04/30 04:43:10;;;;;;;19.47;14.27;;;14.30;84.10;;;14.95;42.82;100796.66;4897358;28;97217;-49
2021/04/30 04:45:35;;;;;;;21.23;14.83;;;14.40;82.80;;;15.02;43.55;100801.56;4891403;28;97222;-51
2021/04/30 04:48:01;;;;;;;18.73;14.43;;;14.60;82.40;;;15.03;43.32;100808.59;4900755;28;97463;-54
2021/04/30 04:50:27;;;;;;;14.47;12.47;;;14.50;83.40;;;15.08;43.44;100811.88;4906214;28;97197;-52
2021/04/30 04:52:53;;;;;;;25.23;14.77;;;14.50;83.80;;;15.03;43.15;100808.59;4900736;28;97413;-55
2021/04/30 04:55:19;;;;;;;17.00;14.63;;;14.50;82.30;;;15.08;43.53;100814.53;4909623;28;97518;-53
2021/04/30 04:57:45;;;;;;;18.03;14.47;;;14.50;82.50;;;14.97;43.42;100811.56;4893806;28;97601;-52
2021/04/30 05:00:12;;;;;;;18.50;15.50;;;14.30;83.50;;;14.94;43.66;100809.06;4892825;28;97168;-56
2021/04/30 05:02:38;;;;;;;18.13;14.90;;;14.10;84.80;;;14.95;43.59;100809.94;4901118;28;97150;-55
2021/04/30 05:05:06;;;;;;;18.77;14.53;;;14.20;84.40;;;15.00;43.45;100814.06;4895013;28;97026;-56
2021/04/30 05:07:32;;;;;;;18.43;14.67;;;14.30;83.50;;;15.01;43.56;100818.44;4896334;28;99669;-53
2021/04/30 05:09:58;;;;;;;19.03;14.97;;;14.40;83.20;;;15.03;43.36;100813.91;4897646;28;99530;-53
2021/04/30 05:12:24;;;;;;;17.50;14.77;;;14.40;83.30;;;14.95;43.24;100810.78;4893390;28;97401;-56
2021/04/30 05:14:50;;;;;;;16.07;13.57;;;14.20;83.10;;;14.94;43.84;100803.75;4883734;28;97802;-51
2021/04/30 05:17:16;;;;;;;18.93;13.87;;;14.10;85.60;;;14.98;43.73;100805.31;4914711;28;102397;-59
2021/04/30 05:19:42;;;;;;;17.03;15.03;;;14.20;84.60;;;15.00;43.09;100814.06;4898995;28;104458;-55
2021/04/30 05:22:12;;;;;;;19.30;14.80;;;14.30;83.80;;;15.00;43.52;100814.06;4896702;28;97139;-54
2021/04/30 05:24:44;;;;;;;18.37;14.43;;;14.20;84.10;;;15.08;43.24;100813.69;4896137;28;97277;-51
2021/04/30 05:27:11;;;;;;;18.03;14.87;;;14.40;83.20;;;15.14;42.91;100822.19;4900701;28;98404;-53
2021/04/30 05:29:41;;;;;;;19.97;14.50;;;14.60;82.60;;;15.16;41.74;100827.41;4895018;28;96973;-50
2021/04/30 05:32:08;;;;;;;16.13;13.40;;;14.80;80.70;;;15.22;43.10;100828.91;4893040;28;96969;-52
2021/04/30 05:34:35;;;;;;;16.90;13.93;;;14.70;83.20;;;15.20;42.76;100825.47;4909257;28;97283;-55
2021/04/30 05:37:01;;;;;;;15.77;14.13;;;14.70;81.00;;;15.15;43.07;100826.56;4897365;28;98166;-53
2021/04/30 05:39:27;;;;;;;15.27;13.47;;;14.50;82.10;;;15.14;43.42;100838.13;4897041;28;97363;-55
2021/04/30 05:41:53;;;;;;;19.83;15.40;;;14.50;84.20;;;15.10;42.96;100839.22;4901063;28;97442;-53
2021/04/30 05:44:19;;;;;;;12.77;10.50;;;14.40;82.30;;;15.16;43.25;100838.91;4912007;28;97239;-55
2021/04/30 05:46:44;;;;;;;19.73;14.37;;;14.50;83.40;;;15.22;42.00;100836.88;4895741;28;99616;-49
2021/04/30 05:49:10;;;;;;;17.53;15.23;;;14.80;80.30;;;15.10;42.75;100838.38;4909115;28;98094;-51
2021/04/30 05:51:36;;;;;;;18.87;14.73;;;14.50;81.80;;;14.93;43.42;100835.72;4906296;28;97610;-50
2021/04/30 05:54:02;;;;;;;21.70;15.87;;;14.10;84.60;;;14.64;43.24;100839.84;4902120;28;97579;-53
2021/04/30 05:56:28;;;;;;;17.93;15.37;;;13.90;83.50;;;14.80;43.85;100840.78;4908897;28;97402;-55
2021/04/30 05:58:55;;;;;;;16.80;14.03;;;14.00;85.00;;;14.79;43.99;100836.41;4898337;28;105087;-54
2021/04/30 06:01:22;;;;;;;19.67;15.57;;;14.00;84.40;;;14.81;43.88;100835.41;4896878;28;97064;-52
2021/04/30 06:03:47;;;;;;;25.60;16.63;;;14.00;84.90;;;14.59;44.40;100835.59;4897118;28;97092;-49
2021/04/30 06:06:13;;;;;;;22.70;16.13;;;13.80;85.20;;;14.71;43.62;100834.13;4916180;28;98473;-52
2021/04/30 06:08:39;;;;;;;19.20;15.90;;;14.00;84.00;;;14.75;43.67;100841.00;4894478;28;96755;-52
2021/04/30 06:11:05;;;;;;;17.50;15.70;;;14.20;83.20;;;14.79;44.08;100842.59;4890881;28;97359;-53
2021/04/30 06:13:31;;;;;;;18.90;15.33;;;14.20;85.10;;;14.85;43.68;100846.72;4894994;28;96898;-55
2021/04/30 06:15:57;;;;;;;19.10;17.07;;;14.30;83.70;;;14.79;43.72;100849.69;4917208;28;99389;-52
2021/04/30 06:18:24;;;;;;;19.73;16.50;;;14.30;83.00;;;14.57;44.04;100850.72;4894917;28;97229;-52
2021/04/30 06:20:50;;;;;;;16.63;14.50;;;13.90;84.70;;;14.52;44.50;100852.75;4900208;28;96998;-51
2021/04/30 06:23:15;;;;;;;19.40;17.33;;;13.80;86.30;;;14.37;44.87;100856.13;4895625;28;97278;-51
2021/04/30 06:25:41;;;;;;;22.00;16.47;;;13.60;87.00;;;14.53;44.96;100850.97;4884687;28;103059;-57
2021/04/30 06:28:07;;;;;;;21.70;16.20;;;13.80;87.20;;;14.45;44.64;100858.44;4896743;28;97148;-52
2021/04/30 06:30:33;;;;;;;20.77;16.43;;;13.80;85.50;;;14.54;44.74;100858.84;4887804;28;97249;-53
2021/04/30 06:32:59;;;;;;;23.60;16.83;;;13.80;87.50;;;14.66;44.43;100856.53;4891552;28;97391;-52
2021/04/30 06:35:24;;;;;;;20.53;17.20;;;14.10;85.90;;;14.69;44.31;100851.94;4879960;28;97653;-52
2021/04/30 06:37:50;;;;;;;22.90;17.97;;;14.00;85.80;;;14.65;44.21;100849.53;4892991;28;97556;-54
2021/04/30 06:40:17;;;;;;;18.57;13.23;;;13.90;86.20;;;14.71;44.48;100857.16;4886878;28;97562;-51
2021/04/30 06:42:43;;;;;;;22.90;18.30;;;14.00;86.80;;;14.52;45.03;100847.47;4901037;28;97290;-52
2021/04/30 06:45:09;;;;;;;24.33;17.97;;;13.70;88.00;;;14.54;44.97;100850.91;4894080;28;97600;-53
2021/04/30 06:47:35;;;;;;;23.33;19.10;;;13.70;88.20;;;14.49;45.01;100844.97;4894899;28;97223;-53
2021/04/30 06:50:01;;;;;;;22.87;18.67;;;13.60;89.60;;;14.53;45.15;100849.19;4892464;28;97114;-56
2021/04/30 06:52:27;;;;;;;20.80;17.93;;;13.60;90.10;;;14.48;45.10;100840.59;4879436;28;97548;-49
2021/04/30 06:54:53;;;;;;;21.07;18.63;;;13.50;90.20;;;14.41;45.43;100839.13;4890033;28;114971;-51
2021/04/30 06:57:18;;;;;;;21.67;17.73;;;13.40;91.20;;;14.40;45.79;100845.38;4897945;28;97120;-52
2021/04/30 06:59:44;;;;;;;21.33;18.50;;;13.40;91.10;;;14.29;46.46;100847.66;4891780;28;97248;-52
2021/04/30 07:02:11;;;;;;;27.40;18.97;;;13.50;90.90;;;14.41;45.53;100846.22;4900481;28;96973;-52
2021/04/30 07:04:37;;;;;;;23.57;18.47;;;13.50;91.20;;;14.38;45.64;100851.69;4887100;28;97901;-47
2021/04/30 07:07:04;;;;;;;27.60;19.43;;;13.50;91.00;;;14.32;46.25;100858.16;4894507;28;97386;-51
2021/04/30 07:09:30;;;;;;;27.97;19.17;;;13.50;90.90;;;14.35;45.74;100863.31;4892538;28;97889;-53
2021/04/30 07:11:56;;;;;;;25.30;18.67;;;13.50;91.50;;;14.15;46.80;100864.25;4895269;28;98654;-52
2021/04/30 07:14:22;;;;;;;24.20;20.37;;;13.30;91.30;;;14.07;47.37;100862.91;4897512;28;97565;-51
2021/04/30 07:16:48;;;;;;;20.77;18.53;;;13.30;91.20;;;14.13;46.44;100868.75;4879154;28;98278;-53
2021/04/30 07:19:14;;;;;;;24.37;18.40;;;13.40;91.20;;;14.09;46.92;100867.19;4913981;28;97451;-53
2021/04/30 07:21:40;;;;;;;20.93;17.27;;;13.30;91.50;;;14.20;46.23;100874.66;4891755;28;97994;-51
2021/04/30 07:24:06;;;;;;;20.97;16.87;;;13.40;91.10;;;14.36;45.82;100878.28;4907453;28;97773;-51
2021/04/30 07:26:32;;;;;;;22.53;18.90;;;13.80;89.70;;;14.20;46.27;100874.66;4905597;28;98297;-50
2021/04/30 07:28:58;;;;;;;27.30;18.77;;;13.60;90.20;;;14.19;46.83;100872.94;4918875;28;97194;-50
2021/04/30 07:31:24;;;;;;;26.17;21.30;;;13.40;91.30;;;14.14;46.88;100883.75;4891513;28;97592;-53
2021/04/30 07:33:50;;;;;;;26.43;18.87;;;13.30;92.10;;;14.21;46.49;100877.22;4896235;28;97368;-51
2021/04/30 07:36:17;;;;;;;29.20;19.70;;;13.40;91.90;;;14.28;46.31;100878.66;4896147;28;97697;-50
2021/04/30 07:38:43;;;;;;;19.97;17.87;;;13.40;91.80;;;14.18;46.55;100882.69;4900678;28;97097;-49
2021/04/30 07:41:09;;;;;;;26.43;20.60;;;13.20;91.90;;;14.25;46.43;100889.41;4897538;28;97026;-51
2021/04/30 07:43:35;;;;;;;23.13;19.70;;;13.30;92.50;;;14.31;46.57;100893.56;4882120;28;97365;-53
2021/04/30 07:46:02;;;;;;;24.60;19.20;;;13.40;92.30;;;14.39;46.35;100886.09;4897510;28;100040;-52
2021/04/30 07:48:28;;;;;;;23.43;20.63;;;13.50;91.90;;;14.39;45.91;100894.06;4892047;28;98198;-53
2021/04/30 07:50:57;;;;;;;28.77;21.57;;;13.40;92.00;;;14.41;46.34;100894.84;4897766;28;97280;-49
2021/04/30 07:53:22;;;;;;;15.37;12.23;;;13.50;91.80;;;14.38;46.16;100900.31;4891290;28;100040;-53
2021/04/30 07:55:48;;;;;;;22.00;19.10;;;13.30;92.20;;;14.46;45.76;100898.16;4894747;28;99568;-52
2021/04/30 07:58:14;;;;;;;21.47;18.87;;;13.50;91.70;;;14.53;45.88;100904.91;4895347;28;96937;-48
2021/04/30 08:00:40;;;;;;;32.57;22.93;;;13.70;91.10;;;13.70;49.56;100901.69;4903948;28;97122;-49
2021/04/30 08:03:06;;;;;;;27.57;21.87;;;12.90;93.50;;;13.81;48.59;100899.41;4893944;28;97202;-52
2021/04/30 08:05:31;;;;;;;32.07;24.10;;;12.90;93.40;;;13.71;48.43;100895.44;4884607;28;97168;-55
2021/04/30 08:08:02;;;;;;;26.80;20.50;;;12.80;93.00;;;13.68;48.83;100898.25;4889902;28;97071;-50
2021/04/30 08:10:27;;;;;;;30.80;21.73;;;12.90;93.00;;;13.74;48.29;100897.97;4906041;28;97792;-53
2021/04/30 08:12:53;;;;;;;28.17;23.07;;;13.00;92.80;;;13.38;49.86;100900.47;4911978;28;97142;-54
2021/04/30 08:15:19;;;;;;;29.70;22.03;;;12.70;93.10;;;13.31;49.60;100891.06;4914631;28;97312;-49
2021/04/30 08:17:45;;;;;;;27.67;21.57;;;12.60;93.90;;;13.09;50.56;100893.72;4897882;28;97839;-52
2021/04/30 08:20:12;;;;;;;26.23;23.13;;;12.40;93.50;;;12.93;51.18;100896.16;4915002;28;97014;-50
2021/04/30 08:22:38;;;;;;;29.73;23.00;;;12.30;94.40;;;12.83;51.64;100897.44;4901814;28;99679;-52
2021/04/30 08:25:05;;;;;;;30.73;24.37;;;12.20;94.40;;;12.89;51.04;100904.31;4897731;28;97751;-54
2021/04/30 08:27:31;;;;;;;29.90;23.57;;;12.10;95.10;;;13.11;50.35;100902.47;4888326;28;99130;-50
2021/04/30 08:29:57;;;;;;;34.40;23.23;;;12.40;94.60;;;13.16;49.86;100899.59;4896191;28;99904;-48
2021/04/30 08:32:23;;;;;;;28.70;22.43;;;12.40;94.40;;;13.24;49.63;100897.53;4873653;28;99544;-53
2021/04/30 08:34:49;;;;;;;33.13;23.80;;;12.40;94.40;;;13.19;50.60;100900.41;4910605;28;97005;-52
2021/04/30 08:37:15;;;;;;;28.13;22.23;;;12.40;94.50;;;12.92;50.98;100896.22;4898553;28;97153;-55
2021/04/30 08:39:41;;;;;;;32.10;22.07;;;12.30;94.30;;;12.90;50.79;100898.06;4891196;28;97129;-52
2021/04/30 08:42:09;;;;;;;27.33;20.87;;;12.20;94.60;;;13.16;49.88;100896.97;4901324;28;99821;-51
2021/04/30 08:44:39;;;;;;;25.83;21.67;;;12.40;94.20;;;13.19;49.57;100903.03;4887821;28;97516;-56
2021/04/30 08:47:06;;;;;;;27.67;21.97;;;12.40;93.90;;;13.33;49.53;100903.31;4892271;28;97434;-51
2021/04/30 08:49:32;;;;;;;29.73;23.70;;;12.50;93.90;;;13.18;50.48;100903.97;4888943;28;101237;-53
2021/04/30 08:51:58;;;;;;;25.20;22.20;;;12.50;94.40;;;13.08;50.45;100907.91;4900668;28;96874;-48
2021/04/30 08:54:24;;;;;;;25.50;22.00;;;12.40;94.60;;;13.23;49.73;100907.28;4893703;28;97695;-51
2021/04/30 08:56:57;;;;;;;28.53;22.77;;;12.50;94.30;;;13.09;50.97;100920.22;4892533;28;97157;-50
2021/04/30 08:59:26;;;;;;;36.73;25.07;;;12.50;94.40;;;12.90;50.36;100914.81;4880924;28;97067;-51
2021/04/30 09:01:53;;;;;;;31.40;24.97;;;12.40;94.00;;;12.82;51.12;100920.41;4899124;28;97643;-51
2021/04/30 09:04:19;;;;;;;34.37;25.63;;;12.30;94.30;;;12.75;51.32;100916.31;4882817;28;97380;-52
2021/04/30 09:06:45;;;;;;;32.77;25.73;;;12.20;94.40;;;12.76;51.06;100925.09;4913293;28;97297;-52
2021/04/30 09:09:14;;;;;;;31.63;24.63;;;12.20;94.60;;;12.78;50.81;100920.63;4906931;28;96805;-52
2021/04/30 09:11:51;;;;;;;30.03;25.03;;;12.20;94.40;;;12.73;51.38;100923.44;4887669;28;98858;-55
2021/04/30 09:14:30;;;;;;;31.77;25.73;;;12.10;94.70;;;12.85;51.46;100926.50;4897223;28;97742;-55
2021/04/30 09:17:13;;;;;;;32.33;25.10;;;12.20;95.00;;;12.93;50.89;100919.13;4891645;28;97675;-49
2021/04/30 09:19:40;;;;;;;30.80;25.87;;;12.30;94.60;;;12.79;50.98;100917.91;4899735;28;97015;-52
2021/04/30 09:22:09;;;;;;;30.17;24.47;;;12.20;94.50;;;12.81;50.98;100915.19;4913671;28;97467;-49
2021/04/30 09:24:36;;;;;;;33.13;25.50;;;12.20;94.60;;;12.75;51.69;100921.59;4889296;28;97300;-51
2021/04/30 09:27:04;;;;;;;34.13;23.97;;;12.20;94.70;;;12.76;51.00;100912.75;4895239;28;97213;-48
2021/04/30 09:29:32;;;;;;;27.70;23.93;;;12.20;94.40;;;12.72;51.32;100911.13;4903315;28;96916;-51
2021/04/30 09:32:00;;;;;;;29.63;23.03;;;12.20;94.40;;;12.94;50.48;100910.25;4895305;28;99459;-53
2021/04/30 09:34:26;;;;;;;38.33;22.73;;;12.30;94.80;;;13.35;49.29;100903.25;4889702;28;97234;-50
2021/04/30 09:37:14;;;;;;;28.23;23.13;;;12.80;93.60;;;13.65;48.41;100909.84;4891876;28;99629;-51
2021/04/30 09:40:07;;;;;;;27.10;22.00;;;13.10;92.90;;;13.62;48.32;100909.13;4918408;28;97136;-51
2021/04/30 09:42:37;;;;;;;30.50;23.83;;;13.10;92.70;;;13.69;48.25;100913.22;4888661;28;96941;-50
2021/04/30 09:45:11;;;;;;;28.17;23.37;;;13.10;92.60;;;13.73;48.08;100917.44;4913168;28;98752;-52
2021/04/30 09:47:38;;;;;;;31.10;24.40;;;13.10;92.80;;;13.52;48.27;100918.41;4907242;28;97045;-52
2021/04/30 09:50:09;;;;;;;31.63;24.03;;;13.00;92.40;;;13.45;48.86;100917.78;4906997;28;97052;-49
2021/04/30 09:52:35;;;;;;;39.37;23.97;;;12.90;92.90;;;13.39;49.40;100934.84;4892000;28;98176;-55
2021/04/30 09:55:03;;;;;;;29.33;23.50;;;12.90;93.40;;;13.66;48.09;100926.63;4892477;28;97430;-53
2021/04/30 09:57:31;;;;;;;28.53;23.33;;;13.10;92.30;;;13.43;49.09;100929.41;4890246;28;97676;-52
2021/04/30 10:00:10;;;;;;;28.93;21.20;;;13.00;92.70;;;13.56;48.53;100927.94;4896552;28;97047;-54
2021/04/30 10:02:37;;;;;;;25.97;21.60;;;13.00;92.80;;;13.69;48.24;100927.34;4878896;28;98273;-51